createdAt,value
2022-09-22T03:59:17.009Z,20.16
2022-09-22T04:00:15.371Z,20.11
2022-09-22T04:01:15.437Z,20.05
2022-09-22T04:02:15.421Z,20.16
2022-09-22T04:03:15.355Z,20.18
2022-09-22T04:04:16.995Z,20.05
2022-09-22T04:05:15.335Z,20.07
2022-09-22T04:06:15.333Z,20.19
2022-09-22T04:07:15.321Z,20.10
2022-09-22T04:08:15.319Z,20.16
2022-09-22T04:09:15.318Z,20.18
2022-09-22T04:10:17.001Z,20.16
2022-09-22T04:11:15.319Z,20.15
2022-09-22T04:12:15.317Z,20.20
2022-09-22T04:13:15.292Z,20.16
2022-09-22T04:14:15.303Z,20.18
2022-09-22T04:15:17.015Z,20.29
2022-09-22T04:16:17.025Z,20.29
2022-09-22T04:17:16.982Z,20.26
2022-09-22T04:18:16.986Z,20.30
2022-09-22T04:19:16.994Z,20.20
2022-09-22T04:20:16.993Z,20.27
2022-09-22T04:21:16.505Z,20.35
2022-09-22T04:22:16.991Z,20.32
2022-09-22T04:23:17.012Z,20.35
2022-09-22T04:24:16.986Z,20.42
2022-09-22T04:25:17.010Z,20.46
2022-09-22T04:26:16.992Z,20.37
2022-09-22T04:27:21.144Z,20.48
2022-09-22T04:28:17.008Z,20.44
2022-09-22T04:29:17.018Z,20.46
2022-09-22T04:30:17.005Z,20.42
2022-09-22T04:31:16.302Z,20.44
2022-09-22T04:32:17.028Z,20.41
2022-09-22T04:33:15.234Z,20.46
2022-09-22T04:34:15.239Z,20.48
2022-09-22T04:35:15.200Z,20.49
2022-09-22T04:36:15.198Z,20.51
2022-09-22T04:37:17.035Z,20.49
2022-09-22T04:38:15.195Z,20.48
2022-09-22T04:39:15.185Z,20.56
2022-09-22T04:40:15.242Z,20.51
2022-09-22T04:41:17.515Z,20.56
2022-09-22T04:42:15.187Z,20.60
2022-09-22T04:43:15.214Z,20.58
2022-09-22T04:44:17.017Z,20.57
2022-09-22T04:45:15.179Z,20.60
2022-09-22T04:46:15.212Z,20.66
2022-09-22T04:47:15.178Z,20.66
2022-09-22T04:48:16.178Z,20.72
2022-09-22T04:49:17.025Z,20.68
2022-09-22T04:50:16.149Z,20.61
2022-09-22T04:51:15.144Z,20.71
2022-09-22T04:52:17.016Z,20.66
2022-09-22T04:53:16.153Z,20.74
2022-09-22T04:54:16.529Z,20.74
2022-09-22T04:55:17.046Z,20.74
2022-09-22T04:56:16.130Z,20.76
2022-09-22T04:57:20.305Z,20.71
2022-09-22T04:58:16.126Z,20.71
2022-09-22T04:59:17.040Z,20.71
2022-09-22T05:00:17.040Z,20.67
2022-09-22T05:01:17.092Z,20.75
2022-09-22T05:02:17.021Z,20.76
2022-09-22T05:03:21.911Z,20.78
2022-09-22T05:04:16.102Z,20.81
2022-09-22T05:05:17.024Z,20.74
2022-09-22T05:06:17.030Z,20.76
2022-09-22T05:07:15.092Z,20.82
2022-09-22T05:08:17.043Z,20.85
2022-09-22T05:09:17.054Z,20.83
2022-09-22T05:10:15.078Z,20.81
2022-09-22T05:11:17.052Z,20.86
2022-09-22T05:12:15.077Z,20.83
2022-09-22T05:13:17.082Z,20.82
2022-09-22T05:14:15.076Z,20.82
2022-09-22T05:15:16.056Z,20.81
2022-09-22T05:16:15.078Z,20.83
2022-09-22T05:17:17.046Z,20.79
2022-09-22T05:18:17.039Z,20.79
2022-09-22T05:19:17.045Z,20.83
2022-09-22T05:20:15.048Z,20.81
2022-09-22T05:21:16.545Z,20.94
2022-09-22T05:22:16.564Z,20.82
2022-09-22T05:23:16.572Z,20.93
2022-09-22T05:24:16.571Z,20.97
2022-09-22T05:25:16.558Z,20.90
2022-09-22T05:26:16.565Z,20.94
2022-09-22T05:27:16.541Z,20.86
2022-09-22T05:28:16.559Z,20.88
2022-09-22T05:29:16.588Z,20.90
2022-09-22T05:30:16.574Z,20.97
2022-09-22T05:31:16.661Z,20.88
2022-09-22T05:32:16.555Z,20.85
2022-09-22T05:33:16.569Z,20.98
2022-09-22T05:34:16.577Z,20.93
2022-09-22T05:35:16.604Z,20.98
2022-09-22T05:36:16.583Z,20.90
2022-09-22T05:37:16.548Z,20.88
2022-09-22T05:38:16.697Z,20.97
2022-09-22T05:39:16.561Z,21.00
2022-09-22T05:40:16.632Z,21.01
2022-09-22T05:41:15.994Z,20.98
2022-09-22T05:42:16.558Z,20.94
2022-09-22T05:43:15.000Z,21.01
2022-09-22T05:44:16.568Z,21.01
2022-09-22T05:45:14.955Z,21.06
2022-09-22T05:46:15.031Z,21.01
2022-09-22T05:47:16.600Z,20.96
2022-09-22T05:48:14.953Z,20.94
2022-09-22T05:49:14.944Z,21.08
2022-09-22T05:50:14.937Z,21.08
2022-09-22T05:51:14.944Z,20.97
2022-09-22T05:52:16.595Z,20.98
2022-09-22T05:53:15.168Z,21.01
2022-09-22T05:54:21.298Z,20.97
2022-09-22T05:55:15.638Z,21.04
2022-09-22T05:56:15.822Z,21.08
2022-09-22T05:57:15.954Z,21.06
2022-09-22T05:58:15.285Z,21.01
2022-09-22T05:59:27.256Z,20.97
2022-09-22T06:00:15.250Z,21.00
2022-09-22T06:01:15.042Z,21.08
2022-09-22T06:02:25.677Z,21.04
2022-09-22T06:03:16.666Z,21.12
2022-09-22T06:04:16.847Z,21.03
2022-09-22T06:05:17.582Z,21.15
2022-09-22T06:06:16.587Z,21.18
2022-09-22T06:07:16.639Z,21.15
2022-09-22T06:08:16.616Z,21.16
2022-09-22T06:09:16.592Z,21.21
2022-09-22T06:10:16.651Z,21.16
2022-09-22T06:11:16.651Z,21.31
2022-09-22T06:12:16.593Z,21.22
2022-09-22T06:13:16.621Z,21.27
2022-09-22T06:14:14.876Z,21.34
2022-09-22T06:15:14.849Z,21.31
2022-09-22T06:16:14.925Z,21.28
2022-09-22T06:17:14.872Z,21.37
2022-09-22T06:18:17.628Z,21.34
2022-09-22T06:19:14.840Z,21.41
2022-09-22T06:20:16.646Z,21.37
2022-09-22T06:21:14.869Z,21.48
2022-09-22T06:22:15.864Z,21.48
2022-09-22T06:23:16.618Z,21.43
2022-09-22T06:24:14.858Z,21.58
2022-09-22T06:25:18.569Z,21.53
2022-09-22T06:26:16.613Z,21.56
2022-09-22T06:27:18.061Z,21.61
2022-09-22T06:28:15.579Z,21.53
2022-09-22T06:29:16.635Z,21.66
2022-09-22T06:30:14.863Z,21.61
2022-09-22T06:31:16.734Z,21.74
2022-09-22T06:32:14.863Z,21.73
2022-09-22T06:33:16.621Z,21.74
2022-09-22T06:34:16.683Z,21.74
2022-09-22T06:35:16.783Z,21.73
2022-09-22T06:36:16.710Z,21.71
2022-09-22T06:37:14.790Z,21.83
2022-09-22T06:39:16.647Z,21.93
2022-09-22T06:40:17.633Z,21.90
2022-09-22T06:41:16.668Z,21.94
2022-09-22T06:42:16.629Z,21.96
2022-09-22T06:43:16.637Z,21.97
2022-09-22T06:44:16.617Z,21.99
2022-09-22T06:45:14.781Z,22.07
2022-09-22T06:46:21.224Z,22.02
2022-09-22T06:47:16.652Z,22.08
2022-09-22T06:48:14.845Z,22.11
2022-09-22T06:49:14.764Z,22.11
2022-09-22T06:50:14.836Z,22.09
2022-09-22T06:51:17.672Z,22.09
2022-09-22T06:52:16.640Z,22.16
2022-09-22T06:53:14.760Z,22.20
2022-09-22T06:54:16.680Z,22.27
2022-09-22T06:55:14.760Z,22.23
2022-09-22T06:56:16.653Z,22.31
2022-09-22T06:57:16.654Z,22.29
2022-09-22T06:58:16.643Z,22.31
2022-09-22T06:59:16.680Z,22.36
2022-09-22T07:00:14.734Z,22.38
2022-09-22T07:01:16.817Z,22.36
2022-09-22T07:02:16.842Z,22.36
2022-09-22T07:03:16.682Z,22.46
2022-09-22T07:04:16.673Z,22.46
2022-09-22T07:05:16.637Z,22.46
2022-09-22T07:06:20.029Z,22.48
2022-09-22T07:07:16.648Z,22.51
2022-09-22T07:08:16.675Z,22.57
2022-09-22T07:09:16.667Z,22.57
2022-09-22T07:10:16.682Z,22.64
2022-09-22T07:11:16.649Z,22.61
2022-09-22T07:12:14.727Z,22.59
2022-09-22T07:13:14.711Z,22.66
2022-09-22T07:14:16.682Z,22.73
2022-09-22T07:15:17.646Z,22.76
2022-09-22T07:16:14.735Z,22.73
2022-09-22T07:17:16.689Z,22.75
2022-09-22T07:18:15.721Z,22.79
2022-09-22T07:19:14.704Z,22.84
2022-09-22T07:20:14.693Z,22.85
2022-09-22T07:21:17.686Z,22.88
2022-09-22T07:22:16.673Z,22.88
2022-09-22T07:23:16.668Z,22.92
2022-09-22T07:24:14.711Z,22.99
2022-09-22T07:25:16.722Z,23.00
2022-09-22T07:26:14.729Z,23.04
2022-09-22T07:27:17.247Z,23.04
2022-09-22T07:28:15.708Z,23.01
2022-09-22T07:29:16.698Z,23.12
2022-09-22T07:30:16.872Z,23.04
2022-09-22T07:31:18.695Z,23.06
2022-09-22T07:32:14.721Z,23.09
2022-09-22T07:33:15.722Z,23.10
2022-09-22T07:34:14.682Z,23.12
2022-09-22T07:35:21.335Z,23.15
2022-09-22T07:36:15.855Z,23.25
2022-09-22T07:37:16.276Z,23.26
2022-09-22T07:38:17.307Z,23.28
2022-09-22T07:39:14.730Z,23.25
2022-09-22T07:40:14.815Z,23.32
2022-09-22T07:41:14.690Z,23.32
2022-09-22T07:42:16.229Z,23.41
2022-09-22T07:43:14.681Z,23.42
2022-09-22T07:44:16.211Z,23.40
2022-09-22T07:45:14.695Z,23.34
2022-09-22T07:46:16.247Z,23.45
2022-09-22T07:47:14.652Z,23.45
2022-09-22T07:48:14.658Z,23.45
2022-09-22T07:49:14.664Z,23.53
2022-09-22T07:50:14.926Z,23.53
2022-09-22T07:51:17.095Z,23.57
2022-09-22T07:52:14.715Z,23.62
2022-09-22T07:53:16.218Z,23.66
2022-09-22T07:54:14.684Z,23.66
2022-09-22T07:55:15.728Z,23.67
2022-09-22T07:56:14.912Z,23.70
2022-09-22T07:57:17.227Z,23.74
2022-09-22T07:58:17.494Z,23.77
2022-09-22T07:59:14.700Z,23.78
2022-09-22T08:00:16.239Z,23.81
2022-09-22T08:01:16.283Z,23.82
2022-09-22T08:02:14.677Z,23.77
2022-09-22T08:03:16.223Z,23.77
2022-09-22T08:04:16.240Z,23.87
2022-09-22T08:05:16.203Z,23.85
2022-09-22T08:06:16.255Z,23.94
2022-09-22T08:07:16.224Z,23.99
2022-09-22T08:08:16.194Z,24.00
2022-09-22T08:09:16.330Z,24.02
2022-09-22T08:10:16.198Z,23.99
2022-09-22T08:11:16.214Z,24.04
2022-09-22T08:12:16.203Z,24.02
2022-09-22T08:13:16.211Z,24.08
2022-09-22T08:14:14.618Z,24.08
2022-09-22T08:15:14.693Z,24.04
2022-09-22T08:16:16.296Z,24.09
2022-09-22T08:17:14.634Z,24.12
2022-09-22T08:18:14.635Z,24.12
2022-09-22T08:19:14.652Z,24.22
2022-09-22T08:20:14.625Z,24.15
2022-09-22T08:21:14.628Z,24.21
2022-09-22T08:22:16.213Z,24.15
2022-09-22T08:23:16.209Z,24.15
2022-09-22T08:24:16.223Z,24.22
2022-09-22T08:25:16.215Z,24.26
2022-09-22T08:26:16.218Z,24.29
2022-09-22T08:27:16.222Z,24.21
2022-09-22T08:28:16.269Z,24.27
2022-09-22T08:29:16.244Z,24.24
2022-09-22T08:30:15.682Z,24.29
2022-09-22T08:31:16.359Z,24.32
2022-09-22T08:32:16.231Z,24.33
2022-09-22T08:33:16.211Z,24.39
2022-09-22T08:34:16.256Z,24.36
2022-09-22T08:35:16.251Z,24.45
2022-09-22T08:36:16.233Z,24.40
2022-09-22T08:37:16.221Z,24.44
2022-09-22T08:38:16.222Z,24.46
2022-09-22T08:39:16.257Z,24.51
2022-09-22T08:40:16.290Z,24.51
2022-09-22T08:41:16.235Z,24.51
2022-09-22T08:42:16.228Z,24.48
2022-09-22T08:43:16.382Z,24.61
2022-09-22T08:44:16.308Z,24.55
2022-09-22T08:45:17.234Z,24.49
2022-09-22T08:46:16.013Z,24.55
2022-09-22T08:47:16.258Z,24.58
2022-09-22T08:48:16.230Z,24.63
2022-09-22T08:49:16.254Z,24.63
2022-09-22T08:50:16.243Z,24.61
2022-09-22T08:51:16.268Z,24.64
2022-09-22T08:52:16.281Z,24.71
2022-09-22T08:53:16.331Z,24.66
2022-09-22T08:54:16.269Z,24.77
2022-09-22T08:55:17.253Z,24.82
2022-09-22T08:56:16.240Z,24.74
2022-09-22T08:57:16.643Z,24.74
2022-09-22T08:58:16.326Z,24.70
2022-09-22T08:59:15.131Z,24.74
2022-09-22T09:00:16.357Z,24.80
2022-09-22T09:01:16.301Z,24.80
2022-09-22T09:02:16.284Z,24.77
2022-09-22T09:04:17.426Z,24.83
2022-09-22T09:05:16.258Z,24.86
2022-09-22T09:06:16.295Z,24.83
2022-09-22T09:07:16.274Z,24.90
2022-09-22T09:08:16.294Z,24.93
2022-09-22T09:09:22.281Z,24.89
2022-09-22T09:10:16.275Z,25.00
2022-09-22T09:12:16.394Z,25.02
2022-09-22T09:13:16.299Z,25.01
2022-09-22T09:14:16.258Z,25.01
2022-09-22T09:15:16.344Z,25.01
2022-09-22T09:16:14.687Z,25.04
2022-09-22T09:17:16.321Z,25.08
2022-09-22T09:18:16.275Z,25.02
2022-09-22T09:19:18.335Z,25.02
2022-09-22T09:20:14.739Z,25.05
2022-09-22T09:21:14.606Z,25.04
2022-09-22T09:22:16.280Z,25.07
2022-09-22T09:23:16.552Z,25.08
2022-09-22T09:25:23.007Z,25.05
2022-09-22T09:26:15.171Z,25.15
2022-09-22T09:27:26.635Z,25.11
2022-09-22T09:28:17.370Z,25.23
2022-09-22T09:29:21.842Z,25.15
2022-09-22T09:30:23.403Z,25.20
2022-09-22T09:31:14.896Z,25.20
2022-09-22T09:32:16.390Z,25.27
2022-09-22T09:33:30.927Z,25.27
2022-09-22T09:34:14.710Z,25.26
2022-09-22T09:35:16.344Z,25.24
2022-09-22T09:37:36.862Z,25.27
2022-09-22T09:38:17.949Z,25.30
2022-09-22T09:39:15.363Z,25.30
2022-09-22T09:40:14.662Z,25.33
2022-09-22T09:41:17.385Z,25.41
2022-09-22T09:42:15.869Z,25.38
2022-09-22T09:43:16.498Z,25.34
2022-09-22T09:44:18.123Z,25.41
2022-09-22T09:45:21.596Z,25.47
2022-09-22T09:46:15.533Z,25.47
2022-09-22T09:47:14.905Z,25.44
2022-09-22T09:48:17.781Z,25.44
2022-09-22T09:49:16.480Z,25.42
2022-09-22T09:50:14.598Z,25.47
2022-09-22T09:51:16.297Z,25.45
2022-09-22T09:52:16.406Z,25.47
2022-09-22T09:53:16.313Z,25.59
2022-09-22T09:54:17.244Z,25.60
2022-09-22T09:55:14.609Z,25.66
2022-09-22T09:56:14.605Z,25.59
2022-09-22T09:57:14.608Z,25.57
2022-09-22T09:58:15.810Z,25.62
2022-09-22T09:59:16.316Z,25.75
2022-09-22T10:00:15.633Z,25.70
2022-09-22T10:01:16.377Z,25.71
2022-09-22T10:02:15.610Z,25.74
2022-09-22T10:13:20.521Z,25.89
2022-09-22T10:14:19.479Z,25.97
2022-09-22T10:15:20.584Z,26.03
2022-09-22T10:16:21.061Z,25.99
2022-09-22T10:17:19.502Z,25.97
2022-09-22T10:18:19.466Z,26.06
2022-09-22T10:19:21.066Z,26.11
2022-09-22T10:20:19.483Z,26.17
2022-09-22T10:21:22.050Z,26.12
2022-09-22T10:22:19.476Z,26.20
2022-09-22T10:23:19.503Z,26.27
2022-09-22T10:24:21.018Z,26.30
2022-09-22T10:25:21.084Z,26.24
2022-09-22T10:26:20.997Z,26.32
2022-09-22T10:27:20.991Z,26.37
2022-09-22T10:28:21.046Z,26.35
2022-09-22T10:29:21.258Z,26.39
2022-09-22T10:30:22.013Z,26.47
2022-09-22T10:31:21.024Z,26.50
2022-09-22T10:32:22.028Z,26.54
2022-09-22T10:33:29.068Z,26.54
2022-09-22T10:34:21.203Z,26.54
2022-09-22T10:35:19.626Z,26.60
2022-09-22T10:36:19.530Z,26.75
2022-09-22T10:37:19.634Z,26.74
2022-09-22T10:38:20.627Z,26.81
2022-09-22T10:39:20.824Z,26.76
2022-09-22T10:40:19.745Z,26.84
2022-09-22T10:41:19.554Z,26.93
2022-09-22T10:42:19.527Z,26.91
2022-09-22T10:43:19.724Z,27.00
2022-09-22T10:44:38.012Z,27.06
2022-09-22T10:45:24.753Z,27.06
2022-09-22T10:46:19.622Z,27.24
2022-09-22T10:47:21.566Z,27.21
2022-09-22T10:49:21.087Z,27.28
2022-09-22T10:50:20.531Z,27.43
2022-09-22T10:51:19.523Z,27.37
2022-09-22T10:52:20.226Z,27.49
2022-09-22T10:53:19.678Z,27.53
2022-09-22T10:54:20.060Z,27.46
2022-09-22T10:55:28.146Z,27.59
2022-09-22T10:56:19.530Z,27.68
2022-09-22T10:57:19.761Z,27.53
2022-09-22T10:58:19.551Z,27.71
2022-09-22T10:59:19.725Z,27.69
2022-09-22T11:00:22.328Z,27.68
2022-09-22T11:01:19.643Z,27.80
2022-09-22T11:02:27.730Z,27.89
2022-09-22T11:03:19.542Z,27.86
2022-09-22T11:04:21.611Z,27.99
2022-09-22T11:05:21.532Z,28.02
2022-09-22T11:06:21.542Z,28.01
2022-09-22T11:07:20.562Z,27.91
2022-09-22T11:08:19.728Z,27.96
2022-09-22T11:09:21.522Z,28.02
2022-09-22T11:10:21.524Z,28.01
2022-09-22T11:42:55.121Z,28.72
2022-09-22T11:43:55.751Z,28.57
2022-09-22T11:44:51.960Z,28.64
2022-09-22T11:45:53.635Z,28.78
2022-09-22T11:46:54.799Z,28.91
2022-09-22T11:47:51.307Z,28.86
2022-09-22T11:48:51.126Z,29.05
2022-09-22T11:49:51.310Z,29.10
2022-09-22T11:50:55.071Z,29.06
2022-09-22T11:51:51.167Z,29.11
2022-09-22T11:52:51.274Z,29.24
2022-09-22T11:53:51.160Z,29.38
2022-09-22T11:54:51.246Z,29.54
2022-09-22T11:55:51.212Z,29.65
2022-09-22T11:56:54.262Z,29.72
2022-09-22T11:57:51.213Z,29.85
2022-09-22T11:58:56.394Z,29.95
2022-09-22T11:59:51.320Z,30.00
2022-09-22T12:00:51.276Z,30.06
2022-09-22T12:01:56.948Z,30.03
2022-09-22T12:02:51.233Z,29.97
2022-09-22T12:03:54.336Z,29.84
2022-09-22T12:04:53.150Z,29.85
2022-09-22T12:05:51.352Z,29.72
2022-09-22T12:06:51.438Z,29.65
2022-09-22T12:07:54.072Z,29.55
2022-09-22T12:08:51.305Z,29.48
2022-09-22T12:09:53.181Z,29.42
2022-09-22T12:10:51.449Z,29.39
2022-09-22T12:11:53.114Z,29.32
2022-09-22T12:12:51.272Z,29.30
2022-09-22T12:13:53.238Z,29.50
2022-09-22T12:14:52.218Z,29.63
2022-09-22T12:15:59.737Z,29.76
2022-09-22T12:16:51.211Z,29.98
2022-09-22T12:17:52.329Z,30.07
2022-09-22T12:18:52.593Z,30.31
2022-09-22T12:19:53.339Z,30.44
2022-09-22T12:20:53.157Z,30.42
2022-09-22T12:21:52.253Z,30.42
2022-09-22T12:22:53.134Z,30.34
2022-09-22T12:23:53.119Z,30.37
2022-09-22T12:24:58.749Z,30.54
2022-09-22T12:25:51.359Z,30.75
2022-09-22T12:26:53.148Z,30.85
2022-09-22T12:27:54.116Z,30.99
2022-09-22T12:28:53.141Z,31.23
2022-09-22T12:29:52.307Z,31.31
2022-09-22T12:30:52.349Z,31.40
2022-09-22T12:31:53.178Z,31.22
2022-09-22T12:32:53.202Z,31.10
2022-09-22T12:33:53.162Z,31.37
2022-09-22T12:34:53.119Z,31.49
2022-09-22T12:35:52.638Z,31.67
2022-09-22T12:36:53.149Z,31.81
2022-09-22T12:37:53.204Z,31.93
2022-09-22T12:38:53.158Z,32.01
2022-09-22T12:39:53.156Z,32.25
2022-09-22T12:40:53.141Z,32.35
2022-09-22T12:41:53.185Z,32.53
2022-09-22T12:42:53.135Z,32.64
2022-09-22T12:43:53.136Z,32.72
2022-09-22T12:44:53.128Z,32.87
2022-09-22T12:45:53.240Z,33.02
2022-09-22T12:46:53.138Z,33.06
2022-09-22T12:48:53.171Z,33.34
2022-09-22T12:49:53.164Z,33.46
2022-09-22T12:50:53.148Z,33.55
2022-09-22T12:51:53.159Z,33.62
2022-09-22T12:52:51.394Z,33.68
2022-09-22T12:53:53.168Z,33.81
2022-09-22T12:54:53.162Z,33.90
2022-09-22T12:55:51.388Z,33.99
2022-09-22T12:56:53.256Z,34.10
2022-09-22T12:57:51.403Z,34.22
2022-09-22T12:58:51.406Z,34.36
2022-09-22T12:59:51.408Z,34.36
2022-09-22T13:00:52.518Z,34.51
2022-09-22T13:01:54.339Z,34.54
2022-09-22T13:02:53.178Z,34.67
2022-09-22T13:03:53.212Z,34.75
2022-09-22T13:04:51.443Z,34.83
2022-09-22T13:05:53.200Z,34.81
2022-09-22T13:06:51.462Z,34.54
2022-09-22T13:07:53.174Z,34.19
2022-09-22T13:08:51.569Z,33.95
2022-09-22T13:09:53.187Z,33.80
2022-09-22T13:10:53.203Z,33.61
2022-09-22T13:11:53.170Z,33.58
2022-09-22T13:12:51.526Z,33.41
2022-09-22T13:13:53.394Z,33.23
2022-09-22T13:14:51.508Z,33.09
2022-09-22T13:15:54.165Z,33.26
2022-09-22T13:16:52.767Z,33.47
2022-09-22T13:17:53.230Z,33.36
2022-09-22T13:18:51.547Z,33.08
2022-09-22T13:19:53.223Z,32.90
2022-09-22T13:20:51.652Z,32.68
2022-09-22T13:21:53.216Z,32.56
2022-09-22T13:22:53.194Z,32.65
2022-09-22T13:23:52.750Z,32.61
2022-09-22T13:24:53.183Z,32.43
2022-09-22T13:25:51.643Z,32.42
2022-09-22T13:26:52.692Z,32.54
2022-09-22T13:27:53.243Z,32.80
2022-09-22T13:28:51.616Z,32.99
2022-09-22T13:29:51.610Z,33.12
2022-09-22T13:30:52.757Z,33.24
2022-09-22T13:31:52.702Z,33.43
2022-09-22T13:32:52.723Z,33.50
2022-09-22T13:33:53.218Z,33.63
2022-09-22T13:34:52.710Z,33.66
2022-09-22T13:35:52.716Z,33.81
2022-09-22T13:36:53.190Z,33.90
2022-09-22T13:37:53.208Z,34.03
2022-09-22T13:38:53.206Z,34.15
2022-09-22T13:39:53.200Z,34.24
2022-09-22T13:40:51.975Z,34.36
2022-09-22T13:41:53.345Z,34.45
2022-09-22T13:42:53.736Z,34.59
2022-09-22T13:43:52.050Z,34.72
2022-09-22T13:44:54.209Z,34.77
2022-09-22T13:45:51.955Z,34.74
2022-09-22T13:46:54.716Z,34.77
2022-09-22T13:47:53.824Z,34.94
2022-09-22T13:48:52.318Z,34.97
2022-09-22T13:49:52.871Z,34.99
2022-09-22T13:50:52.462Z,34.97
2022-09-22T13:51:51.740Z,34.75
2022-09-22T13:52:54.439Z,34.54
2022-09-22T13:53:51.746Z,34.26
2022-09-22T13:54:51.744Z,34.14
2022-09-22T13:55:54.785Z,34.19
2022-09-22T13:56:53.715Z,34.32
2022-09-22T13:57:53.735Z,34.46
2022-09-22T13:58:58.762Z,34.54
2022-09-22T13:59:53.739Z,34.66
2022-09-22T14:01:11.991Z,34.67
2022-09-22T14:01:51.896Z,34.56
2022-09-22T14:02:51.842Z,34.29
2022-09-22T14:03:51.806Z,34.00
2022-09-22T14:04:53.762Z,33.80
2022-09-22T14:05:53.867Z,33.55
2022-09-22T14:06:51.826Z,33.40
2022-09-22T14:08:11.237Z,33.20
2022-09-22T14:08:53.728Z,32.98
2022-09-22T14:09:53.740Z,32.75
2022-09-22T14:10:53.748Z,32.65
2022-09-22T14:11:53.742Z,32.37
2022-09-22T14:12:53.754Z,32.24
2022-09-22T14:13:53.758Z,32.09
2022-09-22T14:14:51.857Z,32.09
2022-09-22T14:15:53.750Z,32.34
2022-09-22T14:16:53.769Z,32.42
2022-09-22T14:17:53.825Z,32.30
2022-09-22T14:18:53.772Z,32.15
2022-09-22T14:19:53.768Z,32.09
2022-09-22T14:20:51.904Z,32.00
2022-09-22T14:21:51.941Z,31.78
2022-09-22T14:22:53.765Z,31.70
2022-09-22T14:23:51.903Z,31.80
2022-09-22T14:24:53.825Z,31.95
2022-09-22T14:25:51.951Z,32.06
2022-09-22T14:26:53.779Z,32.15
2022-09-22T14:27:51.939Z,32.12
2022-09-22T14:28:51.951Z,32.01
2022-09-22T14:29:51.948Z,31.77
2022-09-22T14:30:53.307Z,31.55
2022-09-22T14:31:52.126Z,31.38
2022-09-22T14:32:51.942Z,31.23
2022-09-22T14:33:51.973Z,31.04
2022-09-22T14:34:51.990Z,30.88
2022-09-22T14:35:51.957Z,30.86
2022-09-22T14:36:53.773Z,30.62
2022-09-22T14:37:53.913Z,30.48
2022-09-22T14:39:06.435Z,30.32
2022-09-22T14:39:53.779Z,30.18
2022-09-22T14:40:53.865Z,30.04
2022-09-22T14:41:53.770Z,29.89
2022-09-22T14:42:53.762Z,29.75
2022-09-22T14:43:53.795Z,29.79
2022-09-22T14:44:53.769Z,29.89
2022-09-22T14:45:53.892Z,30.07
2022-09-22T14:46:53.799Z,30.21
2022-09-22T14:47:53.323Z,30.35
2022-09-22T14:48:53.859Z,30.35
2022-09-22T14:49:53.777Z,30.52
2022-09-22T14:50:52.010Z,30.49
2022-09-22T14:51:52.007Z,30.51
2022-09-22T14:52:53.821Z,30.62
2022-09-22T14:53:52.020Z,30.62
2022-09-22T14:54:53.799Z,30.60
2022-09-22T14:55:52.025Z,30.51
2022-09-22T14:56:52.031Z,30.57
2022-09-22T14:57:53.800Z,30.56
2022-09-22T14:58:52.026Z,30.44
2022-09-22T14:59:53.816Z,30.48
2022-09-22T15:00:53.907Z,30.39
2022-09-22T15:01:52.062Z,30.34
2022-09-22T15:02:53.790Z,30.19
2022-09-22T15:03:52.053Z,30.19
2022-09-22T15:04:53.803Z,30.09
2022-09-22T15:05:53.807Z,30.02
2022-09-22T15:06:51.852Z,29.89
2022-09-22T15:07:53.608Z,29.82
2022-09-22T15:08:53.650Z,29.76
2022-09-22T15:09:53.611Z,29.57
2022-09-22T15:10:53.603Z,29.63
2022-09-22T15:11:53.609Z,29.54
2022-09-22T15:13:53.621Z,29.40
2022-09-22T15:14:53.640Z,29.24
2022-09-22T15:15:53.609Z,29.21
2022-09-22T15:16:53.609Z,29.10
2022-09-22T15:17:53.631Z,28.95
2022-09-22T15:18:53.624Z,28.97
2022-09-22T15:19:53.637Z,28.83
2022-09-22T15:20:53.621Z,28.79
2022-09-22T15:21:53.641Z,28.72
2022-09-22T15:22:53.624Z,28.60
2022-09-22T15:23:53.144Z,28.54
2022-09-22T15:24:53.661Z,28.53
2022-09-22T15:25:53.622Z,28.42
2022-09-22T15:26:53.628Z,28.33
2022-09-22T15:27:53.629Z,28.24
2022-09-22T15:28:53.648Z,28.17
2022-09-22T15:29:53.646Z,28.16
2022-09-22T15:30:53.646Z,28.01
2022-09-22T15:31:52.015Z,27.98
2022-09-22T15:32:51.936Z,27.94
2022-09-22T15:33:53.645Z,27.81
2022-09-22T15:34:51.955Z,27.71
2022-09-22T15:35:53.159Z,27.62
2022-09-22T15:36:51.941Z,27.61
2022-09-22T15:37:51.948Z,27.49
2022-09-22T15:38:53.658Z,27.42
2022-09-22T15:39:53.712Z,27.41
2022-09-22T15:40:53.677Z,27.36
2022-09-22T15:41:53.842Z,27.24
2022-09-22T15:43:12.313Z,27.21
2022-09-22T15:43:53.852Z,27.08
2022-09-22T15:44:53.852Z,27.04
2022-09-22T15:45:53.930Z,27.05
2022-09-22T15:46:54.856Z,26.79
2022-09-22T15:47:53.875Z,26.81
2022-09-22T15:48:53.848Z,26.75
2022-09-22T15:49:53.868Z,26.72
2022-09-22T15:50:53.882Z,26.64
2022-09-22T15:51:53.853Z,26.56
2022-09-22T15:52:52.169Z,26.53
2022-09-22T15:53:52.171Z,26.42
2022-09-22T15:54:53.915Z,26.38
2022-09-22T15:55:52.260Z,26.37
2022-09-22T15:56:52.206Z,26.32
2022-09-22T15:57:53.885Z,26.35
2022-09-22T15:58:52.189Z,26.19
2022-09-22T15:59:53.888Z,26.07
2022-09-22T16:00:53.921Z,26.04
2022-09-22T16:12:36.326Z,25.47
2022-09-22T16:13:34.723Z,25.37
2022-09-22T16:14:36.291Z,25.33
2022-09-22T16:15:36.305Z,25.27
2022-09-22T16:16:34.736Z,25.23
2022-09-22T16:17:36.322Z,25.14
2022-09-22T16:18:34.702Z,25.11
2022-09-22T16:19:36.309Z,25.04
2022-09-22T16:20:34.695Z,25.07
2022-09-22T16:21:36.328Z,25.01
2022-09-22T16:22:36.331Z,25.02
2022-09-22T16:23:36.305Z,25.00
2022-09-22T16:24:36.331Z,24.92
2022-09-22T16:25:36.319Z,24.86
2022-09-22T16:26:36.314Z,24.86
2022-09-22T16:27:34.677Z,24.77
2022-09-22T16:28:34.694Z,24.77
2022-09-22T16:29:36.327Z,24.75
2022-09-22T16:30:34.676Z,24.64
2022-09-22T16:31:36.410Z,24.67
2022-09-22T16:32:34.681Z,24.58
2022-09-22T16:33:34.685Z,24.64
2022-09-22T16:34:34.677Z,24.54
2022-09-22T16:35:34.695Z,24.45
2022-09-22T16:36:36.349Z,24.42
2022-09-22T16:37:34.687Z,24.46
2022-09-22T16:38:34.700Z,24.33
2022-09-22T16:39:35.682Z,24.40
2022-09-22T16:40:36.377Z,24.32
2022-09-22T16:41:36.314Z,24.24
2022-09-22T16:42:36.329Z,24.26
2022-09-22T16:43:36.365Z,24.26
2022-09-22T16:44:36.345Z,24.18
2022-09-22T16:45:36.360Z,24.24
2022-09-22T16:46:36.371Z,24.22
2022-09-22T16:47:36.372Z,24.11
2022-09-22T16:48:41.379Z,24.08
2022-09-22T16:49:36.346Z,24.04
2022-09-22T16:50:36.327Z,24.08
2022-09-22T16:51:36.362Z,23.94
2022-09-22T16:52:36.452Z,23.94
2022-09-22T16:53:36.342Z,23.97
2022-09-22T16:54:36.863Z,23.89
2022-09-22T16:55:37.421Z,23.75
2022-09-22T16:56:34.653Z,23.77
2022-09-22T16:57:34.660Z,23.79
2022-09-22T16:58:34.648Z,23.79
2022-09-22T16:59:36.353Z,23.75
2022-09-22T17:00:34.700Z,23.72
2022-09-22T17:01:34.706Z,23.71
2022-09-22T17:02:36.363Z,23.66
2022-09-22T17:03:35.872Z,23.62
2022-09-22T17:04:34.660Z,23.62
2022-09-22T17:05:34.665Z,23.57
2022-09-22T17:06:34.649Z,23.56
2022-09-22T17:07:36.363Z,23.55
2022-09-22T17:08:36.367Z,23.45
2022-09-22T17:09:35.853Z,23.42
2022-09-22T17:10:34.636Z,23.41
2022-09-22T17:11:36.369Z,23.44
2022-09-22T17:12:36.349Z,23.38
2022-09-22T17:13:36.349Z,23.41
2022-09-22T17:14:36.361Z,23.44
2022-09-22T17:15:36.357Z,23.26
2022-09-22T17:16:36.367Z,23.19
2022-09-22T17:17:36.357Z,23.32
2022-09-22T17:18:36.348Z,23.25
2022-09-22T17:19:36.417Z,23.22
2022-09-22T17:20:36.357Z,23.24
2022-09-22T17:21:36.388Z,23.16
2022-09-22T17:22:38.314Z,23.21
2022-09-22T17:23:36.346Z,23.09
2022-09-22T17:24:36.367Z,23.07
2022-09-22T17:25:35.718Z,23.07
2022-09-22T17:26:36.362Z,23.09
2022-09-22T17:27:36.397Z,23.07
2022-09-22T17:28:36.360Z,23.07
2022-09-22T17:29:36.376Z,23.03
2022-09-22T17:30:36.382Z,23.07
2022-09-22T17:31:36.443Z,22.99
2022-09-22T17:32:36.386Z,23.06
2022-09-22T17:33:36.380Z,22.89
2022-09-22T17:34:36.369Z,22.91
2022-09-22T17:35:36.364Z,22.91
2022-09-22T17:36:36.367Z,22.89
2022-09-22T17:37:36.420Z,22.88
2022-09-22T17:38:36.380Z,22.79
2022-09-22T17:39:36.370Z,22.85
2022-09-22T17:40:36.437Z,22.85
2022-09-22T17:41:36.386Z,22.84
2022-09-22T17:42:36.381Z,22.81
2022-09-22T17:43:34.558Z,22.79
2022-09-22T17:44:35.389Z,22.79
2022-09-22T17:45:34.561Z,22.73
2022-09-22T17:46:36.462Z,22.69
2022-09-22T17:47:34.566Z,22.67
2022-09-22T17:48:36.373Z,22.59
2022-09-22T17:49:36.394Z,22.59
2022-09-22T17:50:34.554Z,22.66
2022-09-22T17:51:36.374Z,22.64